sensor_id;sensor_type;location;lat;lon;timestamp;pressure;altitude;pressure_sealevel;temperature;humidity
8627;BME280;4351;51.422;6.794;2023-08-06T00:01:01;102068.25;;;15.46;100.00
8627;BME280;4351;51.422;6.794;2023-08-06T00:03:31;102084.84;;;15.41;100.00
8627;BME280;4351;51.422;6.794;2023-08-06T00:05:59;102126.25;;;15.46;100.00
8627;BME280;4351;51.422;6.794;2023-08-06T00:08:26;102104.63;;;15.28;100.00
8627;BME280;4351;51.422;6.794;2023-08-06T00:10:54;102130.44;;;15.36;100.00
8627;BME280;4351;51.422;6.794;2023-08-06T00:13:22;102146.59;;;15.39;100.00
8627;BME280;4351;51.422;6.794;2023-08-06T00:15:50;102126.16;;;15.32;100.00
8627;BME280;4351;51.422;6.794;2023-08-06T00:18:18;102084.53;;;15.31;100.00
8627;BME280;4351;51.422;6.794;2023-08-06T00:20:47;102058.81;;;15.37;100.00
8627;BME280;4351;51.422;6.794;2023-08-06T00:23:15;102043.38;;;15.37;100.00
8627;BME280;4351;51.422;6.794;2023-08-06T00:25:44;102046.09;;;15.37;100.00
8627;BME280;4351;51.422;6.794;2023-08-06T00:28:12;102011.81;;;15.35;100.00
8627;BME280;4351;51.422;6.794;2023-08-06T00:30:39;101972.59;;;15.39;100.00
8627;BME280;4351;51.422;6.794;2023-08-06T00:33:07;101928.69;;;15.31;100.00
8627;BME280;4351;51.422;6.794;2023-08-06T00:35:35;101885.75;;;15.36;100.00
8627;BME280;4351;51.422;6.794;2023-08-06T00:38:04;101844.41;;;15.45;100.00
8627;BME280;4351;51.422;6.794;2023-08-06T00:40:32;101764.19;;;15.38;100.00
8627;BME280;4351;51.422;6.794;2023-08-06T00:43:00;101787.13;;;15.48;100.00
8627;BME280;4351;51.422;6.794;2023-08-06T00:45:28;101780.81;;;15.48;100.00
8627;BME280;4351;51.422;6.794;2023-08-06T00:47:57;101765.09;;;15.38;100.00
8627;BME280;4351;51.422;6.794;2023-08-06T00:50:26;101730.03;;;15.34;100.00
8627;BME280;4351;51.422;6.794;2023-08-06T00:52:54;101764.03;;;15.41;100.00
8627;BME280;4351;51.422;6.794;2023-08-06T00:55:23;101804.81;;;15.41;100.00
8627;BME280;4351;51.422;6.794;2023-08-06T00:57:51;101824.22;;;15.35;100.00
8627;BME280;4351;51.422;6.794;2023-08-06T01:00:24;101863.06;;;15.37;100.00
8627;BME280;4351;51.422;6.794;2023-08-06T01:02:52;101908.41;;;15.36;100.00
8627;BME280;4351;51.422;6.794;2023-08-06T01:05:21;101947.53;;;15.34;100.00
8627;BME280;4351;51.422;6.794;2023-08-06T01:08:05;101962.09;;;15.33;100.00
8627;BME280;4351;51.422;6.794;2023-08-06T01:11:02;101998.00;;;15.38;100.00
8627;BME280;4351;51.422;6.794;2023-08-06T01:13:38;102047.94;;;15.37;100.00
8627;BME280;4351;51.422;6.794;2023-08-06T01:16:10;102075.53;;;15.45;100.00
8627;BME280;4351;51.422;6.794;2023-08-06T01:18:39;102038.38;;;15.29;100.00
8627;BME280;4351;51.422;6.794;2023-08-06T01:21:09;101999.81;;;15.23;100.00
8627;BME280;4351;51.422;6.794;2023-08-06T01:23:37;101953.34;;;15.27;100.00
8627;BME280;4351;51.422;6.794;2023-08-06T01:26:11;101997.53;;;15.31;100.00
8627;BME280;4351;51.422;6.794;2023-08-06T01:28:46;101944.72;;;15.35;100.00
8627;BME280;4351;51.422;6.794;2023-08-06T01:31:30;101949.06;;;15.38;100.00
8627;BME280;4351;51.422;6.794;2023-08-06T01:33:59;101926.75;;;15.33;100.00
8627;BME280;4351;51.422;6.794;2023-08-06T01:36:30;101936.56;;;15.35;100.00
8627;BME280;4351;51.422;6.794;2023-08-06T01:38:59;101878.59;;;15.35;100.00
8627;BME280;4351;51.422;6.794;2023-08-06T01:41:27;101823.44;;;15.33;100.00
8627;BME280;4351;51.422;6.794;2023-08-06T01:43:56;101802.66;;;15.32;100.00
8627;BME280;4351;51.422;6.794;2023-08-06T01:46:24;101725.69;;;15.31;100.00
8627;BME280;4351;51.422;6.794;2023-08-06T01:48:52;101654.03;;;15.32;100.00
8627;BME280;4351;51.422;6.794;2023-08-06T01:51:20;101653.97;;;15.47;100.00
8627;BME280;4351;51.422;6.794;2023-08-06T01:53:49;101626.69;;;15.48;100.00
8627;BME280;4351;51.422;6.794;2023-08-06T01:56:17;101590.91;;;15.42;100.00
8627;BME280;4351;51.422;6.794;2023-08-06T01:58:45;101585.00;;;15.35;100.00
8627;BME280;4351;51.422;6.794;2023-08-06T02:01:13;101583.25;;;15.34;100.00
8627;BME280;4351;51.422;6.794;2023-08-06T02:03:41;101571.53;;;15.33;100.00
8627;BME280;4351;51.422;6.794;2023-08-06T02:06:09;101559.53;;;15.36;100.00
8627;BME280;4351;51.422;6.794;2023-08-06T02:08:37;101546.19;;;15.33;100.00
8627;BME280;4351;51.422;6.794;2023-08-06T02:11:08;101515.81;;;15.26;100.00
8627;BME280;4351;51.422;6.794;2023-08-06T02:13:36;101498.22;;;15.32;100.00
8627;BME280;4351;51.422;6.794;2023-08-06T02:16:06;101535.75;;;15.39;100.00
8627;BME280;4351;51.422;6.794;2023-08-06T02:18:35;101523.25;;;15.37;100.00
8627;BME280;4351;51.422;6.794;2023-08-06T02:21:03;101565.88;;;15.36;100.00
8627;BME280;4351;51.422;6.794;2023-08-06T02:23:30;101608.59;;;15.34;100.00
8627;BME280;4351;51.422;6.794;2023-08-06T02:25:59;101645.00;;;15.32;100.00
8627;BME280;4351;51.422;6.794;2023-08-06T02:28:30;101686.34;;;15.37;100.00
8627;BME280;4351;51.422;6.794;2023-08-06T02:30:58;101723.66;;;15.35;100.00
8627;BME280;4351;51.422;6.794;2023-08-06T02:33:26;101733.09;;;15.29;100.00
8627;BME280;4351;51.422;6.794;2023-08-06T02:36:01;101748.81;;;15.24;100.00
8627;BME280;4351;51.422;6.794;2023-08-06T02:38:30;101787.53;;;15.27;100.00
8627;BME280;4351;51.422;6.794;2023-08-06T02:40:58;101810.94;;;15.30;100.00
8627;BME280;4351;51.422;6.794;2023-08-06T02:43:26;101847.25;;;15.29;100.00
8627;BME280;4351;51.422;6.794;2023-08-06T02:45:58;101846.75;;;15.22;100.00
8627;BME280;4351;51.422;6.794;2023-08-06T02:48:26;101833.16;;;15.22;100.00
8627;BME280;4351;51.422;6.794;2023-08-06T02:50:57;101874.44;;;15.29;100.00
8627;BME280;4351;51.422;6.794;2023-08-06T02:53:26;101847.94;;;15.18;100.00
8627;BME280;4351;51.422;6.794;2023-08-06T02:55:56;101836.25;;;15.16;100.00
8627;BME280;4351;51.422;6.794;2023-08-06T02:58:31;101857.03;;;15.17;100.00
8627;BME280;4351;51.422;6.794;2023-08-06T03:01:08;101891.09;;;15.23;100.00
8627;BME280;4351;51.422;6.794;2023-08-06T03:03:52;101916.66;;;15.20;100.00
8627;BME280;4351;51.422;6.794;2023-08-06T03:06:26;101938.97;;;15.11;100.00
8627;BME280;4351;51.422;6.794;2023-08-06T03:08:56;101990.09;;;15.19;100.00
8627;BME280;4351;51.422;6.794;2023-08-06T03:11:25;102009.41;;;15.14;100.00
8627;BME280;4351;51.422;6.794;2023-08-06T03:13:59;102025.13;;;15.09;100.00
8627;BME280;4351;51.422;6.794;2023-08-06T03:16:29;102064.06;;;15.09;100.00
8627;BME280;4351;51.422;6.794;2023-08-06T03:18:58;102083.16;;;15.08;100.00
8627;BME280;4351;51.422;6.794;2023-08-06T03:21:26;102090.47;;;15.07;100.00
8627;BME280;4351;51.422;6.794;2023-08-06T03:23:54;102124.72;;;15.10;100.00
8627;BME280;4351;51.422;6.794;2023-08-06T03:26:26;102164.69;;;15.08;100.00
8627;BME280;4351;51.422;6.794;2023-08-06T03:28:54;102216.31;;;15.08;100.00
8627;BME280;4351;51.422;6.794;2023-08-06T03:31:22;102250.06;;;15.03;100.00
8627;BME280;4351;51.422;6.794;2023-08-06T03:33:52;102274.72;;;15.00;100.00
8627;BME280;4351;51.422;6.794;2023-08-06T03:36:24;102336.88;;;15.07;100.00
8627;BME280;4351;51.422;6.794;2023-08-06T03:38:52;102352.31;;;15.06;100.00
8627;BME280;4351;51.422;6.794;2023-08-06T03:41:20;102403.00;;;15.07;100.00
8627;BME280;4351;51.422;6.794;2023-08-06T03:43:48;102399.63;;;15.02;100.00
8627;BME280;4351;51.422;6.794;2023-08-06T03:46:22;102439.28;;;15.06;100.00
8627;BME280;4351;51.422;6.794;2023-08-06T03:48:53;102475.41;;;15.08;100.00
8627;BME280;4351;51.422;6.794;2023-08-06T03:51:21;102551.41;;;15.10;100.00
8627;BME280;4351;51.422;6.794;2023-08-06T03:53:49;102603.94;;;15.10;100.00
8627;BME280;4351;51.422;6.794;2023-08-06T03:56:17;102650.25;;;15.09;100.00
8627;BME280;4351;51.422;6.794;2023-08-06T03:58:45;102692.84;;;15.08;100.00
8627;BME280;4351;51.422;6.794;2023-08-06T04:01:13;102730.97;;;15.07;100.00
8627;BME280;4351;51.422;6.794;2023-08-06T04:03:44;102806.19;;;15.06;100.00
8627;BME280;4351;51.422;6.794;2023-08-06T04:06:13;102903.03;;;15.09;100.00
8627;BME280;4351;51.422;6.794;2023-08-06T04:08:41;102950.25;;;15.06;100.00
8627;BME280;4351;51.422;6.794;2023-08-06T04:11:09;102984.84;;;15.02;100.00
8627;BME280;4351;51.422;6.794;2023-08-06T04:13:42;103056.34;;;15.04;100.00
8627;BME280;4351;51.422;6.794;2023-08-06T04:16:10;103131.28;;;15.10;100.00
8627;BME280;4351;51.422;6.794;2023-08-06T04:18:38;103199.19;;;15.12;100.00
8627;BME280;4351;51.422;6.794;2023-08-06T04:21:06;103262.69;;;15.11;100.00
8627;BME280;4351;51.422;6.794;2023-08-06T04:23:36;103340.69;;;15.09;100.00
8627;BME280;4351;51.422;6.794;2023-08-06T04:26:06;103406.00;;;15.07;100.00
8627;BME280;4351;51.422;6.794;2023-08-06T04:28:35;103520.22;;;15.05;100.00
8627;BME280;4351;51.422;6.794;2023-08-06T04:31:03;103741.19;;;15.11;100.00
8627;BME280;4351;51.422;6.794;2023-08-06T04:33:33;103845.34;;;15.13;100.00
8627;BME280;4351;51.422;6.794;2023-08-06T04:36:06;103918.84;;;15.10;100.00
8627;BME280;4351;51.422;6.794;2023-08-06T04:38:35;103990.41;;;15.12;100.00
8627;BME280;4351;51.422;6.794;2023-08-06T04:41:03;104089.25;;;15.11;100.00
8627;BME280;4351;51.422;6.794;2023-08-06T04:43:31;104201.59;;;15.13;100.00
8627;BME280;4351;51.422;6.794;2023-08-06T04:45:59;104381.13;;;15.11;100.00
8627;BME280;4351;51.422;6.794;2023-08-06T04:48:27;104488.00;;;15.15;100.00
8627;BME280;4351;51.422;6.794;2023-08-06T04:50:55;104584.06;;;15.17;100.00
8627;BME280;4351;51.422;6.794;2023-08-06T04:53:23;104687.41;;;15.17;100.00
8627;BME280;4351;51.422;6.794;2023-08-06T04:55:52;104752.75;;;15.14;100.00
8627;BME280;4351;51.422;6.794;2023-08-06T04:58:20;104807.13;;;15.14;100.00
8627;BME280;4351;51.422;6.794;2023-08-06T05:00:48;104867.94;;;15.10;100.00
8627;BME280;4351;51.422;6.794;2023-08-06T05:03:15;104920.47;;;15.15;100.00
8627;BME280;4351;51.422;6.794;2023-08-06T05:05:45;104969.41;;;15.16;100.00
8627;BME280;4351;51.422;6.794;2023-08-06T05:08:14;104995.75;;;15.13;100.00
8627;BME280;4351;51.422;6.794;2023-08-06T05:10:43;105005.69;;;15.14;100.00
8627;BME280;4351;51.422;6.794;2023-08-06T05:13:13;105020.28;;;15.11;100.00
8627;BME280;4351;51.422;6.794;2023-08-06T05:15:41;105024.72;;;15.17;100.00
8627;BME280;4351;51.422;6.794;2023-08-06T05:18:09;105058.28;;;15.17;100.00
8627;BME280;4351;51.422;6.794;2023-08-06T05:20:39;105065.50;;;15.20;100.00
8627;BME280;4351;51.422;6.794;2023-08-06T05:23:07;105078.19;;;15.20;100.00
8627;BME280;4351;51.422;6.794;2023-08-06T05:25:35;105081.78;;;15.23;100.00
8627;BME280;4351;51.422;6.794;2023-08-06T05:28:03;105094.47;;;15.24;100.00
8627;BME280;4351;51.422;6.794;2023-08-06T05:30:33;105108.06;;;15.24;100.00
8627;BME280;4351;51.422;6.794;2023-08-06T05:33:03;105160.59;;;15.33;100.00
8627;BME280;4351;51.422;6.794;2023-08-06T05:35:31;105198.69;;;15.33;100.00
8627;BME280;4351;51.422;6.794;2023-08-06T05:37:59;105227.69;;;15.34;100.00
8627;BME280;4351;51.422;6.794;2023-08-06T05:40:27;105282.06;;;15.40;100.00
8627;BME280;4351;51.422;6.794;2023-08-06T05:42:55;105387.25;;;15.46;100.00
8627;BME280;4351;51.422;6.794;2023-08-06T05:45:23;105458.91;;;15.48;100.00
8627;BME280;4351;51.422;6.794;2023-08-06T05:47:53;105492.50;;;15.45;100.00
8627;BME280;4351;51.422;6.794;2023-08-06T05:50:24;105506.97;;;15.52;100.00
8627;BME280;4351;51.422;6.794;2023-08-06T05:52:52;105518.75;;;15.52;100.00
8627;BME280;4351;51.422;6.794;2023-08-06T05:55:20;105496.06;;;15.52;100.00
8627;BME280;4351;51.422;6.794;2023-08-06T05:57:48;105448.00;;;15.52;100.00
8627;BME280;4351;51.422;6.794;2023-08-06T06:00:18;105300.06;;;15.54;100.00
8627;BME280;4351;51.422;6.794;2023-08-06T06:02:46;105162.09;;;15.59;100.00
8627;BME280;4351;51.422;6.794;2023-08-06T06:05:16;105049.56;;;15.61;100.00
8627;BME280;4351;51.422;6.794;2023-08-06T06:07:43;104902.53;;;15.63;100.00
8627;BME280;4351;51.422;6.794;2023-08-06T06:10:11;104787.25;;;15.66;100.00
8627;BME280;4351;51.422;6.794;2023-08-06T06:12:40;104654.69;;;15.69;100.00
8627;BME280;4351;51.422;6.794;2023-08-06T06:15:09;104670.97;;;15.72;100.00
8627;BME280;4351;51.422;6.794;2023-08-06T06:17:38;104743.53;;;15.75;100.00
8627;BME280;4351;51.422;6.794;2023-08-06T06:20:07;104651.09;;;15.67;100.00
8627;BME280;4351;51.422;6.794;2023-08-06T06:22:36;104553.06;;;15.70;100.00
8627;BME280;4351;51.422;6.794;2023-08-06T06:25:05;104414.28;;;15.67;100.00
8627;BME280;4351;51.422;6.794;2023-08-06T06:27:33;104232.84;;;15.68;100.00
8627;BME280;4351;51.422;6.794;2023-08-06T06:30:01;104105.69;;;15.71;100.00
8627;BME280;4351;51.422;6.794;2023-08-06T06:32:30;103986.75;;;15.75;100.00
8627;BME280;4351;51.422;6.794;2023-08-06T06:34:58;103890.47;;;15.78;100.00
8627;BME280;4351;51.422;6.794;2023-08-06T06:37:27;103779.00;;;15.74;100.00
8627;BME280;4351;51.422;6.794;2023-08-06T06:39:56;103691.84;;;15.76;100.00
8627;BME280;4351;51.422;6.794;2023-08-06T06:42:24;103569.44;;;15.74;100.00
8627;BME280;4351;51.422;6.794;2023-08-06T06:44:58;103443.41;;;15.72;100.00
8627;BME280;4351;51.422;6.794;2023-08-06T06:47:26;103296.31;;;15.75;100.00
8627;BME280;4351;51.422;6.794;2023-08-06T06:49:54;103101.19;;;15.78;100.00
8627;BME280;4351;51.422;6.794;2023-08-06T06:52:22;102950.38;;;15.83;100.00
8627;BME280;4351;51.422;6.794;2023-08-06T06:54:51;102793.41;;;15.84;100.00
8627;BME280;4351;51.422;6.794;2023-08-06T06:57:20;102618.28;;;15.85;100.00
8627;BME280;4351;51.422;6.794;2023-08-06T06:59:48;102521.38;;;15.98;100.00
8627;BME280;4351;51.422;6.794;2023-08-06T07:02:16;102330.34;;;15.92;100.00
8627;BME280;4351;51.422;6.794;2023-08-06T07:04:44;102172.41;;;15.93;100.00
8627;BME280;4351;51.422;6.794;2023-08-06T07:07:12;102025.31;;;16.11;100.00
8627;BME280;4351;51.422;6.794;2023-08-06T07:09:40;101885.13;;;16.18;100.00
8627;BME280;4351;51.422;6.794;2023-08-06T07:12:08;101706.09;;;16.22;100.00
8627;BME280;4351;51.422;6.794;2023-08-06T07:14:37;101602.53;;;16.24;100.00
8627;BME280;4351;51.422;6.794;2023-08-06T07:17:05;101481.81;;;16.25;100.00
8627;BME280;4351;51.422;6.794;2023-08-06T07:19:33;101401.44;;;16.32;100.00
8627;BME280;4351;51.422;6.794;2023-08-06T07:22:01;101279.75;;;16.21;100.00
8627;BME280;4351;51.422;6.794;2023-08-06T07:24:29;101241.91;;;16.29;100.00
8627;BME280;4351;51.422;6.794;2023-08-06T07:26:56;101089.59;;;16.39;100.00
8627;BME280;4351;51.422;6.794;2023-08-06T07:29:24;100897.78;;;16.43;100.00
8627;BME280;4351;51.422;6.794;2023-08-06T07:31:53;100732.19;;;16.49;100.00
8627;BME280;4351;51.422;6.794;2023-08-06T07:34:22;100569.31;;;16.54;100.00
8627;BME280;4351;51.422;6.794;2023-08-06T07:36:49;100501.72;;;16.69;100.00
8627;BME280;4351;51.422;6.794;2023-08-06T07:39:18;100375.59;;;16.69;100.00
8627;BME280;4351;51.422;6.794;2023-08-06T07:41:45;100262.38;;;16.76;100.00
8627;BME280;4351;51.422;6.794;2023-08-06T07:44:13;100146.25;;;16.75;100.00
8627;BME280;4351;51.422;6.794;2023-08-06T07:46:41;99998.94;;;16.78;100.00
8627;BME280;4351;51.422;6.794;2023-08-06T07:49:10;99841.34;;;16.83;100.00
8627;BME280;4351;51.422;6.794;2023-08-06T07:51:38;99647.00;;;16.84;100.00
8627;BME280;4351;51.422;6.794;2023-08-06T07:54:06;99565.66;;;16.89;100.00
8627;BME280;4351;51.422;6.794;2023-08-06T07:56:34;99521.09;;;16.99;100.00
8627;BME280;4351;51.422;6.794;2023-08-06T07:59:03;99444.72;;;17.09;100.00
8627;BME280;4351;51.422;6.794;2023-08-06T08:01:31;99401.81;;;17.11;100.00
8627;BME280;4351;51.422;6.794;2023-08-06T08:03:58;99365.75;;;17.17;100.00
8627;BME280;4351;51.422;6.794;2023-08-06T08:06:28;99346.13;;;17.14;100.00
8627;BME280;4351;51.422;6.794;2023-08-06T08:08:55;99329.75;;;17.05;100.00
8627;BME280;4351;51.422;6.794;2023-08-06T08:11:23;99334.34;;;17.05;100.00
8627;BME280;4351;51.422;6.794;2023-08-06T08:13:51;99335.22;;;17.05;100.00
8627;BME280;4351;51.422;6.794;2023-08-06T08:16:19;99319.56;;;16.99;100.00
8627;BME280;4351;51.422;6.794;2023-08-06T08:18:47;99342.53;;;16.96;100.00
8627;BME280;4351;51.422;6.794;2023-08-06T08:21:15;99383.91;;;17.00;100.00
8627;BME280;4351;51.422;6.794;2023-08-06T08:23:44;99413.88;;;17.00;100.00
8627;BME280;4351;51.422;6.794;2023-08-06T08:26:12;99471.41;;;17.05;100.00
8627;BME280;4351;51.422;6.794;2023-08-06T08:28:39;99448.66;;;17.15;100.00
8627;BME280;4351;51.422;6.794;2023-08-06T08:31:08;99456.09;;;16.96;100.00
8627;BME280;4351;51.422;6.794;2023-08-06T08:33:36;99476.81;;;16.88;100.00
8627;BME280;4351;51.422;6.794;2023-08-06T08:36:04;99500.97;;;16.83;100.00
8627;BME280;4351;51.422;6.794;2023-08-06T08:38:33;99481.56;;;16.78;100.00
8627;BME280;4351;51.422;6.794;2023-08-06T08:41:02;99475.47;;;16.84;100.00
8627;BME280;4351;51.422;6.794;2023-08-06T08:43:35;99462.84;;;16.83;100.00
8627;BME280;4351;51.422;6.794;2023-08-06T08:46:05;99467.44;;;16.83;100.00
8627;BME280;4351;51.422;6.794;2023-08-06T08:48:36;99469.66;;;16.87;100.00
8627;BME280;4351;51.422;6.794;2023-08-06T08:51:06;99479.38;;;16.98;100.00
8627;BME280;4351;51.422;6.794;2023-08-06T08:53:35;99725.44;;;17.07;100.00
8627;BME280;4351;51.422;6.794;2023-08-06T08:56:08;99795.22;;;17.00;100.00
8627;BME280;4351;51.422;6.794;2023-08-06T08:58:37;99817.94;;;16.91;100.00
8627;BME280;4351;51.422;6.794;2023-08-06T09:01:07;99860.66;;;16.90;100.00
8627;BME280;4351;51.422;6.794;2023-08-06T09:03:37;99881.56;;;16.89;100.00
8627;BME280;4351;51.422;6.794;2023-08-06T09:06:06;99904.41;;;16.88;100.00
8627;BME280;4351;51.422;6.794;2023-08-06T09:08:39;99925.16;;;16.89;100.00
8627;BME280;4351;51.422;6.794;2023-08-06T09:11:09;99936.06;;;16.89;100.00
8627;BME280;4351;51.422;6.794;2023-08-06T09:13:38;99914.81;;;16.93;100.00
8627;BME280;4351;51.422;6.794;2023-08-06T09:16:06;99935.13;;;16.99;100.00
8627;BME280;4351;51.422;6.794;2023-08-06T09:18:39;99987.97;;;16.88;100.00
8627;BME280;4351;51.422;6.794;2023-08-06T09:21:13;100011.00;;;16.94;100.00
8627;BME280;4351;51.422;6.794;2023-08-06T09:23:43;100036.25;;;16.96;100.00
8627;BME280;4351;51.422;6.794;2023-08-06T09:26:13;99990.72;;;17.06;100.00
8627;BME280;4351;51.422;6.794;2023-08-06T09:28:42;99914.09;;;17.09;100.00
8627;BME280;4351;51.422;6.794;2023-08-06T09:31:11;99900.22;;;17.31;100.00
8627;BME280;4351;51.422;6.794;2023-08-06T09:33:39;99865.19;;;17.18;100.00
8627;BME280;4351;51.422;6.794;2023-08-06T09:36:08;99914.81;;;17.11;100.00
8627;BME280;4351;51.422;6.794;2023-08-06T09:38:38;99939.13;;;17.23;100.00
8627;BME280;4351;51.422;6.794;2023-08-06T09:41:10;99922.53;;;17.34;100.00
8627;BME280;4351;51.422;6.794;2023-08-06T09:43:48;99917.78;;;17.37;100.00
8627;BME280;4351;51.422;6.794;2023-08-06T09:46:17;99916.44;;;17.41;100.00
8627;BME280;4351;51.422;6.794;2023-08-06T09:48:46;99933.03;;;17.29;100.00
8627;BME280;4351;51.422;6.794;2023-08-06T09:51:14;99941.56;;;17.26;100.00
8627;BME280;4351;51.422;6.794;2023-08-06T09:53:43;99984.81;;;17.29;100.00
8627;BME280;4351;51.422;6.794;2023-08-06T09:56:13;99989.97;;;17.32;100.00
8627;BME280;4351;51.422;6.794;2023-08-06T09:58:42;99976.41;;;17.41;100.00
8627;BME280;4351;51.422;6.794;2023-08-06T10:01:12;99980.06;;;17.50;100.00
8627;BME280;4351;51.422;6.794;2023-08-06T10:03:42;99997.22;;;17.42;100.00
8627;BME280;4351;51.422;6.794;2023-08-06T10:06:10;100009.66;;;17.44;100.00
8627;BME280;4351;51.422;6.794;2023-08-06T10:08:39;100012.63;;;17.51;100.00
8627;BME280;4351;51.422;6.794;2023-08-06T10:11:09;100006.06;;;17.62;100.00
8627;BME280;4351;51.422;6.794;2023-08-06T10:13:39;99989.94;;;17.69;100.00
8627;BME280;4351;51.422;6.794;2023-08-06T10:16:08;99964.38;;;17.70;100.00
8627;BME280;4351;51.422;6.794;2023-08-06T10:18:42;99940.69;;;17.70;100.00
8627;BME280;4351;51.422;6.794;2023-08-06T10:21:11;99940.75;;;17.79;100.00
8627;BME280;4351;51.422;6.794;2023-08-06T10:23:40;99942.66;;;17.87;100.00
8627;BME280;4351;51.422;6.794;2023-08-06T10:26:09;99928.34;;;17.85;100.00
8627;BME280;4351;51.422;6.794;2023-08-06T10:28:38;99932.41;;;17.80;100.00
8627;BME280;4351;51.422;6.794;2023-08-06T10:31:10;99934.63;;;18.12;100.00
8627;BME280;4351;51.422;6.794;2023-08-06T10:33:44;99950.41;;;18.00;100.00
8627;BME280;4351;51.422;6.794;2023-08-06T10:36:14;99971.69;;;17.88;100.00
8627;BME280;4351;51.422;6.794;2023-08-06T10:38:46;99985.38;;;17.96;100.00
8627;BME280;4351;51.422;6.794;2023-08-06T10:41:17;99982.41;;;17.89;100.00
8627;BME280;4351;51.422;6.794;2023-08-06T10:43:47;100012.84;;;17.76;100.00
8627;BME280;4351;51.422;6.794;2023-08-06T10:46:23;100012.75;;;18.13;100.00
8627;BME280;4351;51.422;6.794;2023-08-06T10:48:53;99994.91;;;18.19;100.00
8627;BME280;4351;51.422;6.794;2023-08-06T10:51:22;100043.00;;;17.75;100.00
8627;BME280;4351;51.422;6.794;2023-08-06T10:53:51;100124.31;;;17.43;100.00
8627;BME280;4351;51.422;6.794;2023-08-06T10:56:20;100183.84;;;17.48;100.00
8627;BME280;4351;51.422;6.794;2023-08-06T10:58:54;100204.09;;;16.97;100.00
8627;BME280;4351;51.422;6.794;2023-08-06T11:01:23;100228.63;;;17.07;100.00
8627;BME280;4351;51.422;6.794;2023-08-06T11:03:53;100246.28;;;16.93;100.00
8627;BME280;4351;51.422;6.794;2023-08-06T11:06:22;100265.50;;;16.81;100.00
8627;BME280;4351;51.422;6.794;2023-08-06T11:08:52;100293.03;;;16.78;100.00
8627;BME280;4351;51.422;6.794;2023-08-06T11:11:22;100309.66;;;16.35;100.00
8627;BME280;4351;51.422;6.794;2023-08-06T11:13:51;100343.59;;;16.31;100.00
8627;BME280;4351;51.422;6.794;2023-08-06T11:16:21;100318.84;;;16.34;100.00
8627;BME280;4351;51.422;6.794;2023-08-06T11:18:50;100356.59;;;16.17;100.00
8627;BME280;4351;51.422;6.794;2023-08-06T11:21:21;100383.81;;;16.17;100.00
8627;BME280;4351;51.422;6.794;2023-08-06T11:23:51;100376.94;;;16.13;100.00
8627;BME280;4351;51.422;6.794;2023-08-06T11:26:19;100429.38;;;15.94;100.00
8627;BME280;4351;51.422;6.794;2023-08-06T11:28:47;100565.09;;;15.75;100.00
8627;BME280;4351;51.422;6.794;2023-08-06T11:31:19;100604.50;;;15.81;100.00
8627;BME280;4351;51.422;6.794;2023-08-06T11:33:47;100642.19;;;15.86;100.00
8627;BME280;4351;51.422;6.794;2023-08-06T11:36:15;100699.47;;;15.73;100.00
8627;BME280;4351;51.422;6.794;2023-08-06T11:38:45;100617.66;;;15.65;100.00
8627;BME280;4351;51.422;6.794;2023-08-06T11:41:12;100673.44;;;15.59;100.00
8627;BME280;4351;51.422;6.794;2023-08-06T11:43:40;100716.78;;;15.72;100.00
8627;BME280;4351;51.422;6.794;2023-08-06T11:46:09;100755.34;;;15.66;100.00
8627;BME280;4351;51.422;6.794;2023-08-06T11:48:51;100799.81;;;15.88;100.00
8627;BME280;4351;51.422;6.794;2023-08-06T11:51:22;100811.94;;;15.60;100.00
8627;BME280;4351;51.422;6.794;2023-08-06T11:53:53;100813.69;;;15.61;100.00
8627;BME280;4351;51.422;6.794;2023-08-06T11:56:22;100757.72;;;15.47;100.00
8627;BME280;4351;51.422;6.794;2023-08-06T11:58:49;100777.63;;;15.48;100.00
8627;BME280;4351;51.422;6.794;2023-08-06T12:01:18;100786.28;;;15.42;100.00
8627;BME280;4351;51.422;6.794;2023-08-06T12:03:47;100787.25;;;15.40;100.00
8627;BME280;4351;51.422;6.794;2023-08-06T12:06:15;100794.41;;;15.30;100.00
8627;BME280;4351;51.422;6.794;2023-08-06T12:08:43;100804.19;;;15.33;100.00
8627;BME280;4351;51.422;6.794;2023-08-06T12:11:12;100826.16;;;15.29;100.00
8627;BME280;4351;51.422;6.794;2023-08-06T12:13:40;100841.25;;;15.45;100.00
8627;BME280;4351;51.422;6.794;2023-08-06T12:16:08;100801.84;;;15.39;100.00
8627;BME280;4351;51.422;6.794;2023-08-06T12:18:36;100782.81;;;15.39;100.00
8627;BME280;4351;51.422;6.794;2023-08-06T12:21:05;100744.63;;;15.41;100.00
8627;BME280;4351;51.422;6.794;2023-08-06T12:23:33;100684.31;;;15.59;100.00
8627;BME280;4351;51.422;6.794;2023-08-06T12:26:02;100679.38;;;15.52;100.00
8627;BME280;4351;51.422;6.794;2023-08-06T12:28:31;100647.50;;;15.55;100.00
8627;BME280;4351;51.422;6.794;2023-08-06T12:31:00;100652.34;;;15.51;100.00
8627;BME280;4351;51.422;6.794;2023-08-06T12:33:28;100664.06;;;15.51;100.00
8627;BME280;4351;51.422;6.794;2023-08-06T12:35:56;100680.63;;;15.48;100.00
8627;BME280;4351;51.422;6.794;2023-08-06T12:38:25;100688.13;;;15.68;100.00
8627;BME280;4351;51.422;6.794;2023-08-06T12:40:53;100638.66;;;15.74;100.00
8627;BME280;4351;51.422;6.794;2023-08-06T12:43:21;100642.13;;;15.65;100.00
8627;BME280;4351;51.422;6.794;2023-08-06T12:45:50;100627.34;;;15.57;100.00
8627;BME280;4351;51.422;6.794;2023-08-06T12:48:18;100614.50;;;15.59;100.00
8627;BME280;4351;51.422;6.794;2023-08-06T12:50:46;100573.03;;;15.67;100.00
8627;BME280;4351;51.422;6.794;2023-08-06T12:53:15;100581.00;;;15.59;100.00
8627;BME280;4351;51.422;6.794;2023-08-06T12:55:43;100540.41;;;15.67;100.00
8627;BME280;4351;51.422;6.794;2023-08-06T12:58:11;100542.75;;;15.72;100.00
8627;BME280;4351;51.422;6.794;2023-08-06T13:00:39;100516.28;;;15.74;100.00
8627;BME280;4351;51.422;6.794;2023-08-06T13:03:09;100507.66;;;15.90;100.00
8627;BME280;4351;51.422;6.794;2023-08-06T13:05:36;100497.59;;;15.81;100.00
8627;BME280;4351;51.422;6.794;2023-08-06T13:08:04;100494.06;;;15.69;100.00
8627;BME280;4351;51.422;6.794;2023-08-06T13:10:32;100489.25;;;15.72;100.00
8627;BME280;4351;51.422;6.794;2023-08-06T13:13:00;100503.41;;;15.76;100.00